createdAt,value
2019-05-22T00:01:34.738Z,2.93
2019-05-22T00:04:12.969Z,2.60
2019-05-22T00:06:45.676Z,2.80
2019-05-22T00:09:28.656Z,3.17
2019-05-22T00:12:00.812Z,2.90
2019-05-22T00:14:32.622Z,3.20
2019-05-22T00:17:07.558Z,3.13
2019-05-22T00:19:40.215Z,2.97
2019-05-22T00:22:31.032Z,3.50
2019-05-22T00:25:02.361Z,3.13
2019-05-22T00:27:32.922Z,3.07
2019-05-22T00:30:06.032Z,2.93
2019-05-22T00:32:39.405Z,3.33
2019-05-22T00:35:10.500Z,2.73
2019-05-22T00:37:42.763Z,3.27
2019-05-22T00:40:15.309Z,3.50
2019-05-22T00:43:02.921Z,3.40
2019-05-22T00:45:21.903Z,2.93
2019-05-22T00:47:52.692Z,2.73
2019-05-22T00:50:30.620Z,3.33
2019-05-22T00:53:22.237Z,3.47
2019-05-22T00:56:02.306Z,3.80
2019-05-22T00:58:36.454Z,4.30
2019-05-22T01:01:32.484Z,4.90
2019-05-22T01:04:05.760Z,4.23
2019-05-22T01:06:37.715Z,4.63
2019-05-22T01:09:16.568Z,5.33
2019-05-22T01:11:48.463Z,5.77
2019-05-22T01:14:21.195Z,6.10
2019-05-22T01:16:52.894Z,6.70
2019-05-22T01:19:25.137Z,6.63
2019-05-22T01:21:56.382Z,7.73
2019-05-22T01:24:27.869Z,7.07
2019-05-22T01:27:00.123Z,8.00
2019-05-22T01:29:31.113Z,7.50
2019-05-22T01:32:14.030Z,7.37
2019-05-22T01:34:45.066Z,9.00
2019-05-22T01:37:17.974Z,7.70
2019-05-22T01:39:58.529Z,8.80
2019-05-22T01:42:37.330Z,8.33
2019-05-22T01:45:11.507Z,9.97
2019-05-22T01:47:50.970Z,10.63
2019-05-22T01:50:51.100Z,11.33
2019-05-22T01:53:24.314Z,11.00
2019-05-22T01:56:06.315Z,11.10
2019-05-22T01:58:39.197Z,11.23
2019-05-22T02:01:14.097Z,11.43
2019-05-22T02:03:47.481Z,12.23
2019-05-22T02:06:19.620Z,10.87
2019-05-22T02:09:24.491Z,12.50
2019-05-22T02:12:00.898Z,12.23
2019-05-22T02:14:32.373Z,12.33
2019-05-22T02:17:03.007Z,12.10
2019-05-22T02:19:36.836Z,12.60
2019-05-22T02:22:11.006Z,12.70
2019-05-22T02:24:43.825Z,13.00
2019-05-22T02:27:16.337Z,11.47
2019-05-22T02:29:49.884Z,12.67
2019-05-22T02:32:23.341Z,12.17
2019-05-22T02:34:56.835Z,12.67
2019-05-22T02:37:29.032Z,11.30
2019-05-22T02:40:02.611Z,13.13
2019-05-22T02:42:33.112Z,12.30
2019-05-22T02:45:05.172Z,12.97
2019-05-22T02:47:36.653Z,12.53
2019-05-22T02:50:08.710Z,13.33
2019-05-22T02:52:41.073Z,12.17
2019-05-22T02:55:12.293Z,13.20
2019-05-22T02:57:43.092Z,12.80
2019-05-22T03:00:14.873Z,14.33
2019-05-22T03:02:51.087Z,13.63
2019-05-22T03:05:22.827Z,14.33
2019-05-22T03:07:54.693Z,14.20
2019-05-22T03:10:27.644Z,15.10
2019-05-22T03:12:58.687Z,15.90
2019-05-22T03:15:29.791Z,16.23
2019-05-22T03:18:05.322Z,16.77
2019-05-22T03:20:35.706Z,16.80
2019-05-22T03:23:41.556Z,16.27
2019-05-22T03:26:13.134Z,16.37
2019-05-22T03:28:43.939Z,16.83
2019-05-22T03:31:15.971Z,16.93
2019-05-22T03:33:47.292Z,17.40
2019-05-22T03:36:21.159Z,18.37
2019-05-22T03:38:55.437Z,16.13
2019-05-22T03:41:27.825Z,17.23
2019-05-22T03:44:01.619Z,16.67
2019-05-22T03:46:36.177Z,17.83
2019-05-22T03:49:27.500Z,18.27
2019-05-22T03:51:42.497Z,16.67
2019-05-22T03:54:13.090Z,18.23
2019-05-22T03:56:43.946Z,19.70
2019-05-22T03:59:15.206Z,18.67
2019-05-22T04:01:47.882Z,18.87
2019-05-22T04:04:36.782Z,19.47
2019-05-22T04:07:12.046Z,19.20
2019-05-22T04:09:44.838Z,19.10
2019-05-22T04:12:16.078Z,17.83
2019-05-22T04:14:47.126Z,18.73
2019-05-22T04:17:17.703Z,18.00
2019-05-22T04:19:52.092Z,18.33
2019-05-22T04:22:22.651Z,17.70
2019-05-22T04:24:54.877Z,17.63
2019-05-22T04:27:26.104Z,18.70
2019-05-22T04:29:57.063Z,18.50
2019-05-22T04:32:33.066Z,17.73
2019-05-22T04:35:13.167Z,16.77
2019-05-22T04:37:44.784Z,16.43
2019-05-22T04:40:55.749Z,15.37
2019-05-22T04:43:31.256Z,15.87
2019-05-22T04:46:03.636Z,14.50
2019-05-22T04:48:36.457Z,15.67
2019-05-22T04:51:43.214Z,15.70
2019-05-22T04:54:13.632Z,15.83
2019-05-22T04:56:44.548Z,15.80
2019-05-22T04:59:16.760Z,16.50
2019-05-22T05:01:47.447Z,16.93
2019-05-22T05:04:18.823Z,16.23
2019-05-22T05:06:49.880Z,16.23
2019-05-22T05:09:20.627Z,14.30
2019-05-22T05:11:51.135Z,16.23
2019-05-22T05:14:23.250Z,15.70
2019-05-22T05:16:55.675Z,15.50
2019-05-22T05:19:26.625Z,15.70
2019-05-22T05:22:00.724Z,15.00
2019-05-22T05:24:31.248Z,15.90
2019-05-22T05:27:03.094Z,16.93
2019-05-22T05:29:35.266Z,16.60
2019-05-22T05:32:05.999Z,17.13
2019-05-22T05:34:59.618Z,17.20
2019-05-22T05:37:30.688Z,18.07
2019-05-22T05:40:29.160Z,17.20
2019-05-22T05:43:01.585Z,16.83
2019-05-22T05:45:33.761Z,17.67
2019-05-22T05:48:06.986Z,18.20
2019-05-22T05:50:39.909Z,19.33
2019-05-22T05:53:16.878Z,19.37
2019-05-22T05:56:20.981Z,16.43
2019-05-22T05:58:55.084Z,16.87
2019-05-22T06:01:31.926Z,16.63
2019-05-22T06:04:05.420Z,17.97
2019-05-22T06:07:17.528Z,17.30
2019-05-22T06:10:23.896Z,17.33
2019-05-22T06:12:54.778Z,16.80
2019-05-22T06:15:46.549Z,17.43
2019-05-22T06:18:31.913Z,15.87
2019-05-22T06:21:06.862Z,16.63
2019-05-22T06:24:15.402Z,16.63
2019-05-22T06:26:55.747Z,15.43
2019-05-22T06:29:31.531Z,15.60
2019-05-22T06:32:43.300Z,15.07
2019-05-22T06:35:15.913Z,15.80
2019-05-22T06:37:57.751Z,14.90
2019-05-22T06:40:28.635Z,14.87
2019-05-22T06:43:36.118Z,14.53
2019-05-22T06:46:07.074Z,15.47
2019-05-22T06:48:38.104Z,15.20
2019-05-22T06:51:19.218Z,15.30
2019-05-22T06:53:41.384Z,15.70
2019-05-22T06:56:12.516Z,15.80
2019-05-22T06:58:43.977Z,16.97
2019-05-22T07:01:17.097Z,15.53
2019-05-22T07:03:51.539Z,15.33
2019-05-22T07:06:24.378Z,15.40
2019-05-22T07:08:56.773Z,17.10
2019-05-22T07:11:27.813Z,16.57
2019-05-22T07:14:00.978Z,17.20
2019-05-22T07:16:31.848Z,15.23
2019-05-22T07:19:04.109Z,16.53
2019-05-22T07:21:35.169Z,16.43
2019-05-22T07:24:06.803Z,16.17
2019-05-22T07:26:39.159Z,15.40
2019-05-22T07:29:11.142Z,15.90
2019-05-22T07:31:42.588Z,17.03
2019-05-22T07:34:14.126Z,16.47
2019-05-22T07:36:47.267Z,16.70
2019-05-22T07:39:18.551Z,16.70
2019-05-22T07:41:50.406Z,15.87
2019-05-22T07:44:21.212Z,16.03
2019-05-22T07:46:54.402Z,16.07
2019-05-22T07:49:26.539Z,16.87
2019-05-22T07:52:01.796Z,16.43
2019-05-22T07:54:33.542Z,16.47
2019-05-22T07:57:06.631Z,16.83
2019-05-22T07:59:38.927Z,17.03
2019-05-22T08:02:13.946Z,18.60
2019-05-22T08:04:45.793Z,17.43
2019-05-22T08:07:18.930Z,17.47
2019-05-22T08:09:49.935Z,18.33
2019-05-22T08:12:21.214Z,18.03
2019-05-22T08:14:52.286Z,18.07
2019-05-22T08:17:26.376Z,16.03
2019-05-22T08:19:57.223Z,16.77
2019-05-22T08:22:29.740Z,15.57
2019-05-22T08:25:02.635Z,14.67
2019-05-22T08:27:34.870Z,15.17
2019-05-22T08:30:07.422Z,14.03
2019-05-22T08:32:38.726Z,15.77
2019-05-22T08:35:11.810Z,15.17
2019-05-22T08:37:42.975Z,15.87
2019-05-22T08:40:17.653Z,14.47
2019-05-22T08:42:49.973Z,16.60
2019-05-22T08:45:23.597Z,16.50
2019-05-22T08:48:15.019Z,16.37
2019-05-22T08:50:47.518Z,15.50
2019-05-22T08:53:19.262Z,16.37
2019-05-22T08:55:50.875Z,16.37
2019-05-22T08:58:21.774Z,16.10
2019-05-22T09:00:55.153Z,16.17
2019-05-22T09:03:26.114Z,15.80
2019-05-22T09:05:59.308Z,16.73
2019-05-22T09:08:30.777Z,16.63
2019-05-22T09:11:01.217Z,16.97
2019-05-22T09:13:33.417Z,15.63
2019-05-22T09:16:05.796Z,16.73
2019-05-22T09:18:36.427Z,16.27
2019-05-22T09:21:09.141Z,15.10
2019-05-22T09:23:42.995Z,16.20
2019-05-22T09:26:14.442Z,15.50
2019-05-22T09:28:45.279Z,15.73
2019-05-22T09:31:15.777Z,15.87
2019-05-22T09:33:46.660Z,16.63
2019-05-22T09:36:17.591Z,16.97
2019-05-22T09:38:52.208Z,16.13
2019-05-22T09:41:21.176Z,16.57
2019-05-22T09:43:52.930Z,15.27
2019-05-22T09:46:25.726Z,14.57
2019-05-22T09:48:56.685Z,15.23
2019-05-22T09:51:28.174Z,15.23
2019-05-22T09:53:59.634Z,16.07
2019-05-22T09:56:30.007Z,12.87
2019-05-22T09:59:00.429Z,12.47
2019-05-22T10:01:32.958Z,12.83
2019-05-22T10:04:04.683Z,13.83
2019-05-22T10:06:35.889Z,13.10
2019-05-22T10:09:09.162Z,13.57
2019-05-22T10:11:39.550Z,12.77
2019-05-22T10:14:12.125Z,13.83
2019-05-22T10:16:42.966Z,12.60
2019-05-22T10:19:15.599Z,13.03
2019-05-22T10:21:48.043Z,13.20
2019-05-22T10:24:19.697Z,13.50
2019-05-22T10:26:51.056Z,14.23
2019-05-22T10:29:21.858Z,12.90
2019-05-22T10:31:53.762Z,12.03
2019-05-22T10:34:25.227Z,13.50
2019-05-22T10:36:56.339Z,13.87
2019-05-22T10:39:28.083Z,13.03
2019-05-22T10:41:59.520Z,12.93
2019-05-22T10:44:33.200Z,12.47
2019-05-22T10:47:04.470Z,13.27
2019-05-22T10:49:36.767Z,12.73
2019-05-22T10:52:07.795Z,13.17
2019-05-22T10:54:39.309Z,12.53
2019-05-22T10:57:11.388Z,13.50
2019-05-22T10:59:43.315Z,13.30
2019-05-22T11:02:16.032Z,12.03
2019-05-22T11:04:46.919Z,13.00
2019-05-22T11:07:18.434Z,12.83
2019-05-22T11:09:50.783Z,13.07
2019-05-22T11:12:22.307Z,13.37
2019-05-22T11:14:53.674Z,14.10
2019-05-22T11:17:26.574Z,13.57
2019-05-22T11:19:57.465Z,12.03
2019-05-22T11:22:29.787Z,13.23
2019-05-22T11:25:00.354Z,13.43
2019-05-22T11:27:31.885Z,13.93
2019-05-22T11:30:03.642Z,14.10
2019-05-22T11:32:36.350Z,13.63
2019-05-22T11:35:08.762Z,14.67
2019-05-22T11:37:40.682Z,13.83
2019-05-22T11:40:13.513Z,14.13
2019-05-22T11:42:45.616Z,14.03
2019-05-22T11:45:19.568Z,14.43
2019-05-22T11:47:53.287Z,15.43
2019-05-22T11:50:25.708Z,14.93
2019-05-22T11:52:56.480Z,13.97
2019-05-22T11:55:44.365Z,13.67
2019-05-22T11:58:02.023Z,13.73
2019-05-22T12:00:33.023Z,14.57
2019-05-22T12:03:05.619Z,14.07
2019-05-22T12:05:36.763Z,13.00
2019-05-22T12:08:08.371Z,13.23
2019-05-22T12:10:39.258Z,14.23
2019-05-22T12:13:10.739Z,12.03
2019-05-22T12:15:42.692Z,13.13
2019-05-22T12:18:15.001Z,13.83
2019-05-22T12:20:45.518Z,14.13
2019-05-22T12:23:16.139Z,13.30
2019-05-22T12:25:46.969Z,13.73
2019-05-22T12:28:19.436Z,13.50
2019-05-22T12:30:50.559Z,13.83
2019-05-22T12:33:23.968Z,15.07
2019-05-22T12:35:56.411Z,14.90
2019-05-22T12:38:27.868Z,14.83
2019-05-22T12:41:01.671Z,13.50
2019-05-22T12:43:34.620Z,13.77
2019-05-22T12:46:07.351Z,13.77
2019-05-22T12:48:39.577Z,14.00
2019-05-22T12:51:10.858Z,13.80
2019-05-22T12:53:41.269Z,14.53
2019-05-22T12:56:11.992Z,13.93
2019-05-22T12:58:42.721Z,13.63
2019-05-22T13:01:16.351Z,15.63
2019-05-22T13:03:49.517Z,13.53
2019-05-22T13:06:22.792Z,13.50
2019-05-22T13:08:53.801Z,13.30
2019-05-22T13:11:25.746Z,12.87
2019-05-22T13:13:56.636Z,12.97
2019-05-22T13:16:27.618Z,13.03
2019-05-22T13:18:59.974Z,12.90
2019-05-22T13:21:35.186Z,13.37
2019-05-22T13:24:15.974Z,13.10
2019-05-22T13:26:49.671Z,11.00
2019-05-22T13:29:20.390Z,12.47
2019-05-22T13:31:52.679Z,12.17
2019-05-22T13:34:26.823Z,11.33
2019-05-22T13:36:58.207Z,12.03
2019-05-22T13:39:32.955Z,13.07
2019-05-22T13:42:06.830Z,11.63
2019-05-22T13:44:38.158Z,11.30
2019-05-22T13:47:08.972Z,10.70
2019-05-22T13:49:41.371Z,10.63
2019-05-22T13:52:12.636Z,10.00
2019-05-22T13:54:45.215Z,10.13
2019-05-22T13:57:17.071Z,10.63
2019-05-22T13:59:48.177Z,9.80
2019-05-22T14:02:19.000Z,10.60
2019-05-22T14:04:49.920Z,10.07
2019-05-22T14:07:21.093Z,10.17
2019-05-22T14:09:54.503Z,9.83
2019-05-22T14:12:27.957Z,10.37
2019-05-22T14:14:58.350Z,10.17
2019-05-22T14:17:29.478Z,10.13
2019-05-22T14:20:02.904Z,10.40
2019-05-22T14:22:33.386Z,9.40
2019-05-22T14:25:04.239Z,9.80
2019-05-22T14:27:34.743Z,10.00
2019-05-22T14:30:06.517Z,10.47
2019-05-22T14:32:40.514Z,10.03
2019-05-22T14:35:13.981Z,9.73
2019-05-22T14:37:46.130Z,9.23
2019-05-22T14:40:16.914Z,9.00
2019-05-22T14:42:49.237Z,8.90
2019-05-22T14:45:19.990Z,8.20
2019-05-22T14:47:51.874Z,7.57
2019-05-22T14:50:23.315Z,7.23
2019-05-22T14:52:54.495Z,7.63
2019-05-22T14:55:26.497Z,6.50
2019-05-22T14:57:58.555Z,6.53
2019-05-22T15:00:29.585Z,6.77
2019-05-22T15:03:00.333Z,6.10
2019-05-22T15:05:32.818Z,6.33
2019-05-22T15:08:03.844Z,5.93
2019-05-22T15:10:35.877Z,6.47
2019-05-22T15:13:07.914Z,6.07
2019-05-22T15:15:40.439Z,6.57
2019-05-22T15:18:11.610Z,6.53
2019-05-22T15:20:56.741Z,6.77
2019-05-22T15:23:28.396Z,7.00
2019-05-22T15:26:01.716Z,6.90
2019-05-22T15:28:34.583Z,6.97
2019-05-22T15:31:07.867Z,6.77
2019-05-22T15:33:40.503Z,7.60
2019-05-22T15:36:14.044Z,6.50
2019-05-22T15:38:47.590Z,7.43
2019-05-22T15:41:18.439Z,6.83
2019-05-22T15:43:53.099Z,6.73
2019-05-22T15:46:27.300Z,6.50
2019-05-22T15:48:58.214Z,6.83
2019-05-22T15:51:32.682Z,6.40
2019-05-22T15:54:06.511Z,6.90
2019-05-22T15:56:40.133Z,5.80
2019-05-22T15:59:12.760Z,5.70
2019-05-22T16:01:46.032Z,5.33
2019-05-22T16:04:18.701Z,5.37
2019-05-22T16:06:50.305Z,4.80
2019-05-22T16:09:23.550Z,5.63
2019-05-22T16:11:55.430Z,6.10
2019-05-22T16:14:29.450Z,5.40
2019-05-22T16:17:01.931Z,5.80
2019-05-22T16:19:33.487Z,6.63
2019-05-22T16:22:09.921Z,5.77
2019-05-22T16:24:41.671Z,5.37
2019-05-22T16:27:14.293Z,6.13
2019-05-22T16:29:46.122Z,5.43
2019-05-22T16:32:19.329Z,6.13
2019-05-22T16:34:50.441Z,5.73
2019-05-22T16:37:22.797Z,5.33
2019-05-22T16:39:55.153Z,5.87
2019-05-22T16:42:28.925Z,5.00
2019-05-22T16:45:00.475Z,5.83
2019-05-22T16:47:33.524Z,6.80
2019-05-22T16:50:05.846Z,5.73
2019-05-22T16:52:39.090Z,6.67
2019-05-22T16:55:11.435Z,5.60
2019-05-22T16:57:43.927Z,6.63
2019-05-22T17:00:17.318Z,5.97
2019-05-22T17:02:50.341Z,6.50
2019-05-22T17:05:22.595Z,6.90
2019-05-22T17:07:54.863Z,6.23
2019-05-22T17:10:25.752Z,7.03
2019-05-22T17:12:58.786Z,5.80
2019-05-22T17:15:32.926Z,7.30
2019-05-22T17:18:04.615Z,7.07
2019-05-22T17:20:36.072Z,7.17
2019-05-22T17:23:08.108Z,7.57
2019-05-22T17:25:39.631Z,7.20
2019-05-22T17:28:12.510Z,7.83
2019-05-22T17:30:44.326Z,6.90
2019-05-22T17:33:15.269Z,6.87
2019-05-22T17:35:47.046Z,7.13
2019-05-22T17:38:19.951Z,6.97
2019-05-22T17:40:53.934Z,6.40
2019-05-22T17:43:27.940Z,7.30
2019-05-22T17:45:58.645Z,7.00
2019-05-22T17:48:30.084Z,6.97
2019-05-22T17:51:03.452Z,7.03
2019-05-22T17:53:35.798Z,6.17
2019-05-22T17:56:06.922Z,7.67
2019-05-22T17:58:37.915Z,7.13
2019-05-22T18:01:10.852Z,6.60
2019-05-22T18:03:42.051Z,6.77
2019-05-22T18:06:14.092Z,6.40
2019-05-22T18:08:45.498Z,6.37
2019-05-22T18:11:18.088Z,6.53
2019-05-22T18:14:00.834Z,6.43
2019-05-22T18:16:32.662Z,6.57
2019-05-22T18:19:05.130Z,5.70
2019-05-22T18:21:37.150Z,6.20
2019-05-22T18:24:10.418Z,6.50
2019-05-22T18:26:43.432Z,5.97
2019-05-22T18:29:16.693Z,5.47
2019-05-22T18:31:47.237Z,5.57
2019-05-22T18:34:19.645Z,5.93
2019-05-22T18:36:51.735Z,5.73
2019-05-22T18:39:23.908Z,6.03
2019-05-22T18:41:58.147Z,5.80
2019-05-22T18:44:31.767Z,5.60
2019-05-22T18:47:02.462Z,6.17
2019-05-22T18:49:33.247Z,6.73
2019-05-22T18:52:07.695Z,5.73
2019-05-22T18:54:38.600Z,7.17
2019-05-22T18:57:10.362Z,6.00
2019-05-22T18:59:43.538Z,5.70
2019-05-22T19:02:17.024Z,6.40
2019-05-22T19:04:48.329Z,7.23
2019-05-22T19:07:19.392Z,6.53
2019-05-22T19:09:50.491Z,7.07
2019-05-22T19:12:23.990Z,6.60
2019-05-22T19:14:54.510Z,7.40
2019-05-22T19:17:27.326Z,6.77
2019-05-22T19:19:58.486Z,7.23
2019-05-22T19:22:30.451Z,7.93
2019-05-22T19:25:01.783Z,7.90
2019-05-22T19:27:34.065Z,8.07
2019-05-22T19:30:06.855Z,8.73
2019-05-22T19:32:37.860Z,7.80
2019-05-22T19:35:11.386Z,8.47
2019-05-22T19:37:45.327Z,7.50
2019-05-22T19:40:19.422Z,8.33
2019-05-22T19:42:51.445Z,8.43
2019-05-22T19:45:24.172Z,8.07
2019-05-22T19:47:56.875Z,8.43
2019-05-22T19:50:28.871Z,8.00
2019-05-22T19:53:17.646Z,8.57
2019-05-22T19:55:33.308Z,7.93
2019-05-22T19:58:04.273Z,8.43
2019-05-22T20:00:35.291Z,7.77
2019-05-22T20:03:07.659Z,7.67
2019-05-22T20:05:38.525Z,8.70
2019-05-22T20:08:10.212Z,7.90
2019-05-22T20:10:41.632Z,8.53
2019-05-22T20:13:13.256Z,8.13
2019-05-22T20:15:44.002Z,8.73
2019-05-22T20:18:16.866Z,8.50
2019-05-22T20:20:47.726Z,8.57
2019-05-22T20:23:34.278Z,9.00
2019-05-22T20:25:51.321Z,8.17
2019-05-22T20:28:24.855Z,8.60
2019-05-22T20:30:55.725Z,8.90
2019-05-22T20:33:28.330Z,8.60
2019-05-22T20:35:58.829Z,9.47
2019-05-22T20:38:29.208Z,8.83
2019-05-22T20:40:59.733Z,8.67
2019-05-22T20:43:32.371Z,9.43
2019-05-22T20:46:04.224Z,9.23
2019-05-22T20:48:37.285Z,9.07
2019-05-22T20:51:11.636Z,8.20
2019-05-22T20:53:53.628Z,9.00
2019-05-22T20:56:16.949Z,8.93
2019-05-22T20:58:48.003Z,8.67
2019-05-22T21:01:19.245Z,9.83
2019-05-22T21:03:49.582Z,8.47
2019-05-22T21:06:24.225Z,8.90
2019-05-22T21:08:56.562Z,9.40
2019-05-22T21:11:28.300Z,8.97
2019-05-22T21:13:59.275Z,8.23
2019-05-22T21:16:31.577Z,8.70
2019-05-22T21:19:02.866Z,9.10
2019-05-22T21:21:34.252Z,8.50
2019-05-22T21:24:11.587Z,8.67
2019-05-22T21:26:38.649Z,8.37
2019-05-22T21:29:09.274Z,8.80
2019-05-22T21:31:40.215Z,8.47
2019-05-22T21:34:11.493Z,8.67
2019-05-22T21:36:42.655Z,9.00
2019-05-22T21:39:14.042Z,8.77
2019-05-22T21:41:45.019Z,8.67
2019-05-22T21:44:15.502Z,8.97
2019-05-22T21:46:46.239Z,9.10
2019-05-22T21:49:18.838Z,8.93
2019-05-22T21:51:50.113Z,9.53
2019-05-22T21:54:21.230Z,8.40
2019-05-22T21:56:53.304Z,9.43
2019-05-22T21:59:23.917Z,10.00
2019-05-22T22:02:05.043Z,9.20
2019-05-22T22:04:37.881Z,8.93
2019-05-22T22:07:09.749Z,9.13
2019-05-22T22:09:42.441Z,9.47
2019-05-22T22:12:17.166Z,9.13
2019-05-22T22:14:51.407Z,10.10
2019-05-22T22:17:24.098Z,9.43
2019-05-22T22:19:55.500Z,8.30
2019-05-22T22:22:31.098Z,8.83
2019-05-22T22:25:02.343Z,9.77
2019-05-22T22:27:34.107Z,9.40
2019-05-22T22:30:08.361Z,8.67
2019-05-22T22:32:40.093Z,8.50
2019-05-22T22:35:12.483Z,8.87
2019-05-22T22:37:43.951Z,8.47
2019-05-22T22:40:18.102Z,8.70
2019-05-22T22:42:51.451Z,9.70
2019-05-22T22:45:29.754Z,8.80
2019-05-22T22:48:00.430Z,8.70
2019-05-22T22:50:31.848Z,8.60
2019-05-22T22:53:04.058Z,8.63
2019-05-22T22:55:35.120Z,9.03
2019-05-22T22:58:16.482Z,7.97
2019-05-22T23:00:41.092Z,8.70
2019-05-22T23:03:14.250Z,8.97
2019-05-22T23:05:47.038Z,9.53
2019-05-22T23:08:21.024Z,8.60
2019-05-22T23:10:52.906Z,8.97
2019-05-22T23:13:25.394Z,9.63
2019-05-22T23:15:56.519Z,8.37
2019-05-22T23:19:06.808Z,8.23
2019-05-22T23:21:37.563Z,8.40
2019-05-22T23:24:07.303Z,8.70
2019-05-22T23:26:39.290Z,8.63
2019-05-22T23:29:11.534Z,8.13
2019-05-22T23:31:43.296Z,8.10
2019-05-22T23:34:15.191Z,8.77
2019-05-22T23:36:48.398Z,7.97
2019-05-22T23:39:20.994Z,8.23
2019-05-22T23:41:56.223Z,9.10
2019-05-22T23:44:26.109Z,8.70
2019-05-22T23:46:57.536Z,8.13
2019-05-22T23:49:28.514Z,8.07
2019-05-22T23:52:00.825Z,8.17
2019-05-22T23:54:32.224Z,7.53
2019-05-22T23:57:05.519Z,8.00
2019-05-22T23:59:37.776Z,7.93
